Time,TemperatureF,DewpointF,PressureIn,WindDirection,WindDirectionDegrees,WindSpeedMPH,WindSpeedGustMPH,Humidity,HourlyPrecipIn,Conditions,Clouds,dailyrainin,SoftwareType,DateUTC
2013-07-06 00:01:00,66.0,58.0,29.58,SE,126,14.0,16.0,75,0.00,,,0.00,,2013-07-06 07:01:00,
2013-07-06 00:12:00,66.0,58.0,29.58,SE,126,14.0,16.0,75,0.00,,,0.00,,2013-07-06 07:12:00,
2013-07-06 00:22:00,65.0,57.0,29.58,SE,125,14.0,18.0,76,0.00,,,0.00,,2013-07-06 07:22:00,
2013-07-06 00:33:00,65.0,57.0,29.58,SE,125,14.0,18.0,76,0.00,,,0.00,,2013-07-06 07:33:00,
2013-07-06 00:43:00,64.0,57.0,29.58,ESE,122,14.0,16.0,79,0.00,,,0.00,,2013-07-06 07:43:00,
2013-07-06 00:52:00,64.0,57.0,29.58,ESE,122,14.0,16.0,79,0.00,,,0.00,,2013-07-06 07:52:00,
2013-07-06 01:01:00,64.0,57.0,29.58,SE,124,12.0,14.0,78,0.00,,,0.00,,2013-07-06 08:01:00,
2013-07-06 01:11:00,64.0,57.0,29.58,SE,124,12.0,14.0,78,0.00,,,0.00,,2013-07-06 08:11:00,
2013-07-06 01:21:00,64.0,57.0,29.58,SE,124,12.0,14.0,78,0.00,,,0.00,,2013-07-06 08:21:00,
2013-07-06 01:33:00,64.0,57.0,29.58,SE,124,12.0,14.0,78,0.00,,,0.00,,2013-07-06 08:33:00,
2013-07-06 01:43:00,64.0,57.0,29.58,SE,124,12.0,14.0,78,0.00,,,0.00,,2013-07-06 08:43:00,
2013-07-06 02:02:00,67.0,56.0,29.57,SE,125,10.0,12.0,68,0.00,,,0.00,,2013-07-06 09:02:00,
2013-07-06 02:11:00,67.0,56.0,29.57,SE,125,10.0,12.0,68,0.00,,,0.00,,2013-07-06 09:11:00,
2013-07-06 02:22:00,66.0,56.0,29.57,ESE,123,9.0,11.0,69,0.00,,,0.00,,2013-07-06 09:22:00,
2013-07-06 02:33:00,66.0,56.0,29.57,ESE,123,9.0,11.0,69,0.00,,,0.00,,2013-07-06 09:33:00,
2013-07-06 02:43:00,66.0,56.0,29.57,ESE,123,9.0,11.0,69,0.00,,,0.00,,2013-07-06 09:43:00,
2013-07-06 02:52:00,66.0,56.0,29.57,ESE,123,9.0,11.0,69,0.00,,,0.00,,2013-07-06 09:52:00,
2013-07-06 03:02:00,66.0,56.0,29.57,ESE,123,9.0,11.0,69,0.00,,,0.00,,2013-07-06 10:02:00,
2013-07-06 03:22:00,66.0,54.0,29.55,SE,127,10.0,12.0,65,0.00,,,0.00,,2013-07-06 10:22:00,
2013-07-06 03:33:00,66.0,54.0,29.55,SE,127,10.0,12.0,65,0.00,,,0.00,,2013-07-06 10:33:00,
2013-07-06 03:43:00,66.0,54.0,29.55,SE,127,10.0,12.0,65,0.00,,,0.00,,2013-07-06 10:43:00,
2013-07-06 03:53:00,66.0,54.0,29.55,SE,127,10.0,12.0,65,0.00,,,0.00,,2013-07-06 10:53:00,
2013-07-06 04:11:00,68.0,51.0,29.55,SE,127,6.0,7.0,54,0.00,,,0.00,,2013-07-06 11:11:00,
2013-07-06 04:21:00,68.0,53.0,29.55,ESE,118,5.0,6.0,58,0.00,,,0.00,,2013-07-06 11:21:00,
2013-07-06 04:32:00,68.0,53.0,29.55,ESE,118,5.0,6.0,58,0.00,,,0.00,,2013-07-06 11:32:00,
2013-07-06 04:42:00,68.0,53.0,29.55,ESE,118,5.0,6.0,58,0.00,,,0.00,,2013-07-06 11:42:00,
2013-07-06 04:53:00,68.0,53.0,29.55,ESE,118,5.0,6.0,58,0.00,,,0.00,,2013-07-06 11:53:00,
2013-07-06 05:01:00,68.0,53.0,29.55,ESE,118,5.0,6.0,58,0.00,,,0.00,,2013-07-06 12:01:00,
2013-07-06 05:43:00,65.0,55.0,29.55,ESE,112,5.0,6.0,70,0.00,,,0.00,,2013-07-06 12:43:00,
2013-07-06 05:52:00,65.0,55.0,29.55,ESE,112,5.0,6.0,70,0.00,,,0.00,,2013-07-06 12:52:00,
2013-07-06 06:11:00,65.0,55.0,29.55,ESE,111,4.0,6.0,70,0.00,,,0.00,,2013-07-06 13:11:00,
2013-07-06 06:22:00,65.0,55.0,29.55,ESE,111,4.0,6.0,70,0.00,,,0.00,,2013-07-06 13:22:00,
2013-07-06 06:33:00,65.0,55.0,29.55,ESE,111,4.0,6.0,70,0.00,,,0.00,,2013-07-06 13:33:00,
2013-07-06 06:43:00,62.0,57.0,29.56,SE,128,7.0,9.0,84,0.00,,,0.00,,2013-07-06 13:43:00,
2013-07-06 06:52:00,62.0,57.0,29.56,SE,128,7.0,9.0,84,0.00,,,0.00,,2013-07-06 13:52:00,
2013-07-06 07:02:00,62.0,57.0,29.57,ESE,104,1.0,5.0,83,0.00,,,0.00,,2013-07-06 14:02:00,
2013-07-06 07:11:00,62.0,57.0,29.57,ESE,104,1.0,5.0,83,0.00,,,0.00,,2013-07-06 14:11:00,
2013-07-06 07:34:00,65.0,58.0,29.57,ENE,57,4.0,6.0,77,0.00,,,0.00,,2013-07-06 14:34:00,
2013-07-06 07:42:00,67.0,58.0,29.57,ENE,72,4.0,7.0,73,0.00,,,0.00,,2013-07-06 14:42:00,
2013-07-06 07:53:00,67.0,58.0,29.57,ENE,72,4.0,7.0,73,0.00,,,0.00,,2013-07-06 14:53:00,
2013-07-06 08:02:00,68.0,59.0,29.57,North,0,0.0,5.0,74,0.00,,,0.00,,2013-07-06 15:02:00,
2013-07-06 08:12:00,68.0,59.0,29.57,North,0,0.0,5.0,74,0.00,,,0.00,,2013-07-06 15:12:00,
2013-07-06 08:22:00,68.0,59.0,29.57,NE,49,4.0,7.0,72,0.00,,,0.00,,2013-07-06 15:22:00,
2013-07-06 08:33:00,68.0,59.0,29.57,NE,49,4.0,7.0,72,0.00,,,0.00,,2013-07-06 15:33:00,
2013-07-06 08:43:00,68.0,59.0,29.58,East,82,3.0,6.0,72,0.00,,,0.00,,2013-07-06 15:43:00,
2013-07-06 08:53:00,68.0,59.0,29.58,East,82,3.0,6.0,72,0.00,,,0.00,,2013-07-06 15:53:00,
2013-07-06 09:02:00,66.0,59.0,29.58,East,79,1.0,5.0,79,0.00,,,0.00,,2013-07-06 16:02:00,
2013-07-06 09:12:00,66.0,59.0,29.58,East,79,1.0,5.0,79,0.00,,,0.00,,2013-07-06 16:12:00,
2013-07-06 09:22:00,67.0,59.0,29.59,East,80,1.0,6.0,76,0.00,,,0.00,,2013-07-06 16:22:00,
2013-07-06 09:35:00,67.0,59.0,29.59,East,80,1.0,6.0,76,0.00,,,0.00,,2013-07-06 16:35:00,
2013-07-06 09:43:00,64.0,56.0,29.59,ESE,115,5.0,7.0,76,0.00,,,0.00,,2013-07-06 16:43:00,
2013-07-06 10:01:00,64.0,56.0,29.59,ESE,115,5.0,7.0,76,0.00,,,0.00,,2013-07-06 17:01:00,
2013-07-06 10:14:00,64.0,56.0,29.59,ESE,115,5.0,7.0,76,0.00,,,0.00,,2013-07-06 17:14:00,
2013-07-06 10:22:00,65.0,61.0,29.59,SSE,157,3.0,7.0,87,0.00,,,0.00,,2013-07-06 17:22:00,
2013-07-06 10:44:00,65.0,61.0,29.59,SSE,157,3.0,7.0,87,0.00,,,0.00,,2013-07-06 17:44:00,
2013-07-06 11:14:00,64.0,59.0,29.61,SSE,158,2.0,8.0,85,0.00,,,0.00,,2013-07-06 18:14:00,
2013-07-06 11:22:00,66.0,60.0,29.61,SSE,159,4.0,10.0,81,0.00,,,0.00,,2013-07-06 18:22:00,
2013-07-06 12:14:00,67.0,61.0,29.61,SSE,147,7.0,10.0,80,0.00,,,0.00,,2013-07-06 19:14:00,
2013-07-06 12:43:00,69.0,61.0,29.61,SSE,167,4.0,10.0,76,0.00,,,0.00,,2013-07-06 19:43:00,
2013-07-06 13:00:00,69.0,61.0,29.61,SSE,167,4.0,10.0,76,0.00,,,0.00,,2013-07-06 20:00:00,
2013-07-06 13:23:00,69.0,62.0,29.60,North,0,0.0,6.0,78,0.00,,,0.00,,2013-07-06 20:23:00,
2013-07-06 13:36:00,69.0,62.0,29.60,North,0,0.0,6.0,78,0.00,,,0.00,,2013-07-06 20:36:00,
2013-07-06 13:44:00,71.0,62.0,29.60,North,0,0.0,1.0,74,0.00,,,0.00,,2013-07-06 20:44:00,
2013-07-06 14:03:00,71.0,62.0,29.60,North,0,0.0,1.0,74,0.00,,,0.00,,2013-07-06 21:03:00,
2013-07-06 14:14:00,72.0,62.0,29.59,North,0,0.0,4.0,70,0.00,,,0.00,,2013-07-06 21:14:00,
2013-07-06 14:36:00,72.0,62.0,29.59,North,0,0.0,2.0,71,0.00,,,0.00,,2013-07-06 21:36:00,
2013-07-06 14:43:00,73.0,62.0,29.59,North,0,0.0,0.0,69,0.00,,,0.00,,2013-07-06 21:43:00,
2013-07-06 15:02:00,73.0,62.0,29.59,North,0,0.0,0.0,69,0.00,,,0.00,,2013-07-06 22:02:00,
2013-07-06 15:13:00,73.0,62.0,29.59,North,0,0.0,5.0,69,0.00,,,0.00,,2013-07-06 22:13:00,
2013-07-06 15:22:00,72.0,61.0,29.58,North,0,0.0,5.0,69,0.00,,,0.00,,2013-07-06 22:22:00,
2013-07-06 15:35:00,72.0,61.0,29.58,North,0,0.0,5.0,69,0.00,,,0.00,,2013-07-06 22:35:00,
2013-07-06 15:43:00,72.0,62.0,29.58,North,0,0.0,4.0,70,0.00,,,0.00,,2013-07-06 22:43:00,
2013-07-06 16:01:00,72.0,62.0,29.57,North,0,0.0,1.0,70,0.00,,,0.00,,2013-07-06 23:01:00,
2013-07-06 16:13:00,72.0,62.0,29.57,North,0,0.0,1.0,70,0.00,,,0.00,,2013-07-06 23:13:00,
2013-07-06 16:22:00,77.0,63.0,29.56,WSW,258,1.0,7.0,61,0.00,,,0.00,,2013-07-06 23:22:00,
2013-07-06 17:01:00,78.0,62.0,29.55,North,0,0.0,5.0,58,0.00,,,0.00,,2013-07-07 00:01:00,
2013-07-06 17:03:00,78.0,62.0,29.54,WSW,250,1.0,7.0,58,0.00,,,0.00,,2013-07-07 00:03:00,
2013-07-06 17:21:00,78.0,62.0,29.54,WSW,250,1.0,7.0,58,0.00,,,0.00,,2013-07-07 00:21:00,
2013-07-06 17:43:00,78.0,62.0,29.54,WSW,250,1.0,7.0,58,0.00,,,0.00,,2013-07-07 00:43:00,
2013-07-06 18:01:00,78.0,62.0,29.54,WSW,250,1.0,7.0,58,0.00,,,0.00,,2013-07-07 01:01:00,
2013-07-06 18:16:00,78.0,62.0,29.54,SW,235,3.0,7.0,58,0.00,,,0.00,,2013-07-07 01:16:00,
2013-07-06 18:26:00,78.0,62.0,29.54,SW,235,3.0,7.0,58,0.00,,,0.00,,2013-07-07 01:26:00,
2013-07-06 18:35:00,78.0,62.0,29.54,SW,235,3.0,7.0,58,0.00,,,0.00,,2013-07-07 01:35:00,
2013-07-06 18:45:00,78.0,62.0,29.54,SW,235,3.0,7.0,58,0.00,,,0.00,,2013-07-07 01:45:00,
2013-07-06 18:53:00,78.0,62.0,29.54,SW,235,3.0,7.0,58,0.00,,,0.00,,2013-07-07 01:53:00,
2013-07-06 23:43:00,71.0,56.0,29.59,SSW,193,2.0,5.0,60,0.00,,,0.00,,2013-07-07 06:43:00,
2013-07-06 23:52:00,71.0,56.0,29.59,SSW,193,2.0,5.0,60,0.00,,,0.00,,2013-07-07 06:52:00,